KHSB/HSB METAR and TAF weather

Enter ICAO airport designator
Station Type Date Time Source
KHSB METAR 2020/08/14 16:15 UTC NOAA

KHSB 141615Z AUTO 00000KT 10SM CLR 27/24 A2998 RMK AO2 T02710243


Station Type Date Time Source
KHSB Decoded METAR 2020/08/14 16:15 UTC NOAA

Harrisburg, Harrisburg-Raleigh Airport, IL, United States (KHSB) 37-48-41N 088-32-57W
Aug 14, 2020 - 12:15 PM EDT / 2020.08.14 1615 UTC
Wind: Calm:0
Visibility: 10 mile(s):0
Sky conditions: clear
Temperature: 80.8 F (27.1 C)
Dew Point: 75.7 F (24.3 C)
Relative Humidity: 84%
Pressure (altimeter): 29.98 in. Hg (1015 hPa)
ob: KHSB 141615Z AUTO 00000KT 10SM CLR 27/24 A2998 RMK AO2 T02710243
cycle: 16

Station Type Date Time Source
KHSB TAF UTC NOAA

Error!

Example: see airport list